sensor_id;sensor_type;location;lat;lon;timestamp;temperature;humidity
5828;DHT22;42583;50.240;8.444;2023-01-04T00:10:16;5.00;99.90
5828;DHT22;42583;50.240;8.444;2023-01-04T00:25:17;5.00;99.90
5828;DHT22;42583;50.240;8.444;2023-01-04T00:40:17;5.00;99.90
5828;DHT22;42583;50.240;8.444;2023-01-04T00:55:18;5.00;99.90
5828;DHT22;42583;50.240;8.444;2023-01-04T01:10:18;4.90;99.90
5828;DHT22;42583;50.240;8.444;2023-01-04T01:25:19;4.90;99.90
5828;DHT22;42583;50.240;8.444;2023-01-04T01:40:19;4.80;99.90
5828;DHT22;42583;50.240;8.444;2023-01-04T01:55:20;4.70;99.90
5828;DHT22;42583;50.240;8.444;2023-01-04T02:10:22;4.70;99.90
5828;DHT22;42583;50.240;8.444;2023-01-04T03:11:13;4.40;99.90
5828;DHT22;42583;50.240;8.444;2023-01-04T03:26:40;4.30;99.90
5828;DHT22;42583;50.240;8.444;2023-01-04T03:42:10;4.20;99.90
5828;DHT22;42583;50.240;8.444;2023-01-04T03:57:32;4.10;99.90
5828;DHT22;42583;50.240;8.444;2023-01-04T04:12:33;4.00;99.90
5828;DHT22;42583;50.240;8.444;2023-01-04T04:27:34;3.90;99.90
5828;DHT22;42583;50.240;8.444;2023-01-04T04:42:34;3.90;99.90
5828;DHT22;42583;50.240;8.444;2023-01-04T04:57:36;4.00;99.90
5828;DHT22;42583;50.240;8.444;2023-01-04T05:12:36;4.00;99.90
5828;DHT22;42583;50.240;8.444;2023-01-04T05:27:56;4.10;99.90
5828;DHT22;42583;50.240;8.444;2023-01-04T05:42:56;4.20;99.90
5828;DHT22;42583;50.240;8.444;2023-01-04T05:57:57;4.30;99.90
5828;DHT22;42583;50.240;8.444;2023-01-04T06:12:57;4.30;99.90
5828;DHT22;42583;50.240;8.444;2023-01-04T06:27:58;4.40;99.90
5828;DHT22;42583;50.240;8.444;2023-01-04T06:42:58;4.40;99.90
5828;DHT22;42583;50.240;8.444;2023-01-04T06:57:59;4.40;99.90
5828;DHT22;42583;50.240;8.444;2023-01-04T07:12:59;4.50;99.90
5828;DHT22;42583;50.240;8.444;2023-01-04T07:28:00;4.50;99.90
5828;DHT22;42583;50.240;8.444;2023-01-04T07:43:00;4.50;99.90
5828;DHT22;42583;50.240;8.444;2023-01-04T07:58:01;4.60;99.90
5828;DHT22;42583;50.240;8.444;2023-01-04T08:13:02;4.70;99.90
5828;DHT22;42583;50.240;8.444;2023-01-04T08:28:02;4.80;99.90
5828;DHT22;42583;50.240;8.444;2023-01-04T08:43:03;4.90;99.90
5828;DHT22;42583;50.240;8.444;2023-01-04T08:58:03;5.00;99.90
5828;DHT22;42583;50.240;8.444;2023-01-04T09:13:05;5.10;99.90
5828;DHT22;42583;50.240;8.444;2023-01-04T09:28:06;5.20;99.90
5828;DHT22;42583;50.240;8.444;2023-01-04T09:43:08;5.30;99.90
5828;DHT22;42583;50.240;8.444;2023-01-04T10:59:20;5.80;99.90
5828;DHT22;42583;50.240;8.444;2023-01-04T11:14:23;5.80;99.90
5828;DHT22;42583;50.240;8.444;2023-01-04T11:44:39;6.00;99.90
5828;DHT22;42583;50.240;8.444;2023-01-04T11:59:41;6.10;99.90
5828;DHT22;42583;50.240;8.444;2023-01-04T12:14:47;6.30;99.90
5828;DHT22;42583;50.240;8.444;2023-01-04T12:44:59;6.40;99.90
5828;DHT22;42583;50.240;8.444;2023-01-04T13:15:05;6.50;99.90
5828;DHT22;42583;50.240;8.444;2023-01-04T13:30:36;6.60;99.90
5828;DHT22;42583;50.240;8.444;2023-01-04T13:45:43;6.80;99.90
5828;DHT22;42583;50.240;8.444;2023-01-04T14:00:59;6.90;99.90
5828;DHT22;42583;50.240;8.444;2023-01-04T14:16:05;7.10;99.90
5828;DHT22;42583;50.240;8.444;2023-01-04T14:31:17;7.20;99.90
5828;DHT22;42583;50.240;8.444;2023-01-04T14:46:20;7.30;99.90
5828;DHT22;42583;50.240;8.444;2023-01-04T15:01:20;7.40;99.90
5828;DHT22;42583;50.240;8.444;2023-01-04T15:16:21;7.50;99.90
5828;DHT22;42583;50.240;8.444;2023-01-04T15:31:23;7.60;99.90
5828;DHT22;42583;50.240;8.444;2023-01-04T15:46:23;7.60;99.90
5828;DHT22;42583;50.240;8.444;2023-01-04T16:01:24;7.70;99.90
5828;DHT22;42583;50.240;8.444;2023-01-04T16:16:26;7.70;99.90
5828;DHT22;42583;50.240;8.444;2023-01-04T16:31:31;7.70;99.90
5828;DHT22;42583;50.240;8.444;2023-01-04T16:46:34;7.70;99.90
5828;DHT22;42583;50.240;8.444;2023-01-04T17:01:36;7.70;99.90
5828;DHT22;42583;50.240;8.444;2023-01-04T17:16:37;7.70;99.90
5828;DHT22;42583;50.240;8.444;2023-01-04T17:31:39;7.70;99.90
5828;DHT22;42583;50.240;8.444;2023-01-04T17:46:40;7.70;99.90
5828;DHT22;42583;50.240;8.444;2023-01-04T18:01:40;7.80;99.90
5828;DHT22;42583;50.240;8.444;2023-01-04T18:16:41;7.90;99.90
5828;DHT22;42583;50.240;8.444;2023-01-04T18:31:56;8.00;99.90
5828;DHT22;42583;50.240;8.444;2023-01-04T18:46:58;8.10;99.90
5828;DHT22;42583;50.240;8.444;2023-01-04T19:01:58;8.20;99.90
5828;DHT22;42583;50.240;8.444;2023-01-04T19:17:01;8.30;99.90
5828;DHT22;42583;50.240;8.444;2023-01-04T19:32:02;8.40;99.90
5828;DHT22;42583;50.240;8.444;2023-01-04T19:47:02;8.50;99.90
5828;DHT22;42583;50.240;8.444;2023-01-04T20:02:03;8.60;99.90
5828;DHT22;42583;50.240;8.444;2023-01-04T20:17:03;8.80;99.90
5828;DHT22;42583;50.240;8.444;2023-01-04T20:32:04;9.00;99.90
5828;DHT22;42583;50.240;8.444;2023-01-04T20:47:05;9.00;99.90
5828;DHT22;42583;50.240;8.444;2023-01-04T21:02:05;9.00;99.90
5828;DHT22;42583;50.240;8.444;2023-01-04T21:17:06;9.00;99.90
5828;DHT22;42583;50.240;8.444;2023-01-04T21:32:06;9.10;99.90
5828;DHT22;42583;50.240;8.444;2023-01-04T21:47:07;9.10;99.90
5828;DHT22;42583;50.240;8.444;2023-01-04T22:02:14;9.10;99.90
5828;DHT22;42583;50.240;8.444;2023-01-04T22:17:15;9.10;99.90
5828;DHT22;42583;50.240;8.444;2023-01-04T22:32:16;9.20;99.90
5828;DHT22;42583;50.240;8.444;2023-01-04T22:47:16;9.20;99.90
5828;DHT22;42583;50.240;8.444;2023-01-04T23:02:17;9.30;99.90
5828;DHT22;42583;50.240;8.444;2023-01-04T23:17:17;9.30;99.90
5828;DHT22;42583;50.240;8.444;2023-01-04T23:32:18;9.40;99.90
5828;DHT22;42583;50.240;8.444;2023-01-04T23:47:18;9.40;99.90
